createdAt,value
2023-07-26T00:02:06.618Z,25.88
2023-07-26T00:04:33.931Z,25.85
2023-07-26T00:07:01.353Z,25.82
2023-07-26T00:09:28.336Z,25.77
2023-07-26T00:11:55.906Z,25.73
2023-07-26T00:14:22.709Z,25.69
2023-07-26T00:16:51.042Z,25.66
2023-07-26T00:19:20.182Z,25.64
2023-07-26T00:21:47.630Z,25.61
2023-07-26T00:24:14.263Z,25.58
2023-07-26T00:26:41.239Z,25.57
2023-07-26T00:29:08.052Z,25.56
2023-07-26T00:31:34.635Z,25.55
2023-07-26T00:34:02.180Z,25.54
2023-07-26T00:36:29.267Z,25.50
2023-07-26T00:38:56.564Z,25.47
2023-07-26T00:41:23.588Z,25.46
2023-07-26T00:43:50.523Z,25.44
2023-07-26T00:46:18.184Z,25.43
2023-07-26T00:48:45.262Z,25.42
2023-07-26T00:51:12.134Z,25.40
2023-07-26T00:53:38.720Z,25.38
2023-07-26T00:56:05.713Z,25.36
2023-07-26T00:58:32.743Z,25.31
2023-07-26T01:01:00.566Z,25.27
2023-07-26T01:03:28.049Z,25.23
2023-07-26T01:05:55.112Z,25.19
2023-07-26T01:08:29.326Z,25.16
2023-07-26T01:11:06.147Z,25.13
2023-07-26T01:13:36.608Z,25.25
2023-07-26T01:16:03.372Z,25.56
2023-07-26T01:18:30.531Z,25.59
2023-07-26T01:20:57.277Z,25.66
2023-07-26T01:23:24.933Z,25.61
2023-07-26T01:25:51.960Z,25.47
2023-07-26T01:28:18.937Z,25.38
2023-07-26T01:30:45.818Z,25.34
2023-07-26T01:33:12.624Z,25.30
2023-07-26T01:35:41.717Z,25.27
2023-07-26T01:38:08.384Z,25.24
2023-07-26T01:40:35.324Z,25.17
2023-07-26T01:43:02.345Z,25.12
2023-07-26T01:45:29.629Z,25.05
2023-07-26T01:47:56.419Z,25.02
2023-07-26T01:50:24.120Z,25.00
2023-07-26T01:52:51.216Z,25.04
2023-07-26T01:55:17.921Z,25.13
2023-07-26T01:57:45.925Z,25.73
2023-07-26T02:00:12.955Z,25.84
2023-07-26T02:02:42.497Z,25.90
2023-07-26T02:05:10.463Z,25.88
2023-07-26T02:07:38.059Z,25.85
2023-07-26T02:10:05.327Z,25.80
2023-07-26T02:12:32.531Z,25.82
2023-07-26T02:15:00.078Z,25.86
2023-07-26T02:17:26.893Z,25.79
2023-07-26T02:19:54.330Z,25.74
2023-07-26T02:22:22.916Z,25.81
2023-07-26T02:24:49.525Z,25.80
2023-07-26T02:27:16.262Z,25.78
2023-07-26T02:29:43.113Z,25.75
2023-07-26T02:32:10.041Z,25.71
2023-07-26T02:34:37.892Z,25.66
2023-07-26T02:37:04.984Z,25.66
2023-07-26T02:39:31.767Z,25.62
2023-07-26T02:41:59.034Z,25.62
2023-07-26T02:44:25.909Z,25.60
2023-07-26T02:46:53.209Z,25.58
2023-07-26T02:49:20.311Z,25.55
2023-07-26T02:51:46.958Z,25.53
2023-07-26T02:54:13.928Z,25.48
2023-07-26T02:56:40.735Z,25.45
2023-07-26T02:59:07.310Z,25.41
2023-07-26T03:01:34.213Z,25.41
2023-07-26T03:04:01.145Z,25.39
2023-07-26T03:06:28.122Z,25.40
2023-07-26T03:08:55.051Z,25.37
2023-07-26T03:11:22.084Z,25.33
2023-07-26T03:13:49.240Z,25.33
2023-07-26T03:16:17.488Z,25.32
2023-07-26T03:18:44.544Z,25.32
2023-07-26T03:21:11.353Z,25.31
2023-07-26T03:23:39.427Z,25.30
2023-07-26T03:26:06.569Z,25.29
2023-07-26T03:28:33.535Z,25.30
2023-07-26T03:31:01.062Z,25.31
2023-07-26T03:33:28.165Z,25.31
2023-07-26T03:35:55.226Z,25.32
2023-07-26T03:38:21.763Z,25.31
2023-07-26T03:40:48.613Z,25.34
2023-07-26T03:43:16.213Z,25.34
2023-07-26T03:45:43.171Z,25.34
2023-07-26T03:48:10.012Z,25.34
2023-07-26T03:50:36.922Z,25.34
2023-07-26T03:53:03.918Z,25.32
2023-07-26T03:55:30.912Z,25.20
2023-07-26T03:57:58.066Z,25.20
2023-07-26T04:00:25.124Z,25.18
2023-07-26T04:02:53.432Z,25.29
2023-07-26T04:05:20.669Z,25.34
2023-07-26T04:07:51.398Z,25.33
2023-07-26T04:10:18.455Z,25.32
2023-07-26T04:12:45.565Z,25.33
2023-07-26T04:15:12.575Z,25.46
2023-07-26T04:17:39.669Z,25.51
2023-07-26T04:20:07.419Z,25.51
2023-07-26T04:22:34.148Z,25.55
2023-07-26T04:25:01.001Z,25.59
2023-07-26T04:27:27.719Z,25.60
2023-07-26T04:29:56.966Z,25.65
2023-07-26T04:32:24.112Z,25.69
2023-07-26T04:34:50.832Z,25.75
2023-07-26T04:37:17.850Z,25.84
2023-07-26T04:39:46.089Z,25.89
2023-07-26T04:42:13.038Z,25.92
2023-07-26T04:44:39.935Z,25.96
2023-07-26T04:47:06.527Z,26.00
2023-07-26T04:49:33.164Z,26.07
2023-07-26T04:52:00.023Z,26.11
2023-07-26T04:54:27.268Z,26.14
2023-07-26T04:56:53.979Z,26.20
2023-07-26T04:59:20.702Z,26.27
2023-07-26T05:01:47.435Z,26.34
2023-07-26T05:04:14.087Z,26.34
2023-07-26T05:06:41.081Z,26.33
2023-07-26T05:09:07.872Z,26.34
2023-07-26T05:11:35.498Z,26.42
2023-07-26T05:14:02.312Z,26.52
2023-07-26T05:16:29.725Z,26.68
2023-07-26T05:18:58.796Z,26.85
2023-07-26T05:21:26.130Z,26.94
2023-07-26T05:23:53.121Z,26.99
2023-07-26T05:26:21.281Z,27.00
2023-07-26T05:28:47.854Z,27.00
2023-07-26T05:31:14.755Z,27.01
2023-07-26T05:33:41.843Z,27.04
2023-07-26T05:36:10.254Z,27.07
2023-07-26T05:38:39.422Z,27.10
2023-07-26T05:41:06.336Z,27.13
2023-07-26T05:43:33.590Z,27.18
2023-07-26T05:46:01.409Z,27.21
2023-07-26T05:48:28.561Z,27.26
2023-07-26T05:50:55.557Z,27.28
2023-07-26T05:53:24.140Z,27.28
2023-07-26T05:55:51.045Z,27.33
2023-07-26T05:58:17.771Z,27.42
2023-07-26T06:00:44.474Z,27.47
2023-07-26T06:03:11.202Z,27.48
2023-07-26T06:05:38.120Z,27.47
2023-07-26T06:08:04.980Z,27.52
2023-07-26T06:10:32.364Z,27.52
2023-07-26T06:12:59.318Z,27.45
2023-07-26T06:15:25.960Z,27.34
2023-07-26T06:17:52.738Z,27.24
2023-07-26T06:20:19.567Z,27.29
2023-07-26T06:22:47.915Z,27.41
2023-07-26T06:25:14.569Z,27.48
2023-07-26T06:27:41.405Z,27.62
2023-07-26T06:30:08.589Z,27.75
2023-07-26T06:32:35.456Z,27.86
2023-07-26T06:35:02.687Z,27.93
2023-07-26T06:37:29.969Z,27.94
2023-07-26T06:39:56.583Z,27.92
2023-07-26T06:42:23.490Z,27.95
2023-07-26T06:44:50.827Z,27.97
2023-07-26T06:47:17.767Z,27.86
2023-07-26T06:49:44.508Z,27.70
2023-07-26T06:52:11.560Z,27.70
2023-07-26T06:54:38.827Z,27.63
2023-07-26T06:57:05.686Z,27.75
2023-07-26T06:59:32.384Z,27.81
2023-07-26T07:01:59.431Z,27.65
2023-07-26T07:04:27.232Z,27.63
2023-07-26T07:06:54.234Z,27.70
2023-07-26T07:09:20.982Z,27.76
2023-07-26T07:11:47.670Z,27.82
2023-07-26T07:14:14.408Z,27.92
2023-07-26T07:16:42.356Z,27.99
2023-07-26T07:19:09.220Z,28.06
2023-07-26T07:21:36.585Z,28.17
2023-07-26T07:24:05.052Z,28.17
2023-07-26T07:26:31.950Z,28.21
2023-07-26T07:28:58.930Z,28.30
2023-07-26T07:31:25.913Z,28.43
2023-07-26T07:33:52.847Z,28.52
2023-07-26T07:36:20.124Z,28.55
2023-07-26T07:38:46.957Z,28.59
2023-07-26T07:41:14.158Z,28.67
2023-07-26T07:43:40.797Z,28.74
2023-07-26T07:46:07.543Z,28.81
2023-07-26T07:48:34.357Z,28.90
2023-07-26T07:51:01.187Z,28.94
2023-07-26T07:53:30.640Z,28.81
2023-07-26T07:55:57.638Z,28.61
2023-07-26T07:58:26.236Z,28.51
2023-07-26T08:00:56.748Z,28.53
2023-07-26T08:03:23.514Z,28.58
2023-07-26T08:05:51.154Z,28.64
2023-07-26T08:08:18.203Z,28.79
2023-07-26T08:10:49.654Z,28.96
2023-07-26T08:13:21.125Z,29.23
2023-07-26T08:15:58.051Z,29.45
2023-07-26T08:18:27.618Z,29.51
2023-07-26T08:20:54.614Z,29.68
2023-07-26T08:23:23.194Z,29.77
2023-07-26T08:25:50.956Z,29.75
2023-07-26T08:28:20.092Z,29.74
2023-07-26T08:30:47.481Z,29.76
2023-07-26T08:33:14.559Z,29.77
2023-07-26T08:35:41.314Z,29.76
2023-07-26T08:38:15.886Z,29.75
2023-07-26T08:40:53.369Z,29.65
2023-07-26T08:43:20.543Z,29.49
2023-07-26T08:45:47.332Z,29.30
2023-07-26T08:48:15.327Z,29.14
2023-07-26T08:50:43.558Z,29.03
2023-07-26T08:53:20.988Z,29.04
2023-07-26T08:55:47.858Z,28.75
2023-07-26T08:58:14.559Z,28.65
2023-07-26T09:00:41.236Z,28.35
2023-07-26T09:03:08.588Z,28.09
2023-07-26T09:05:36.601Z,27.85
2023-07-26T09:08:03.192Z,27.68
2023-07-26T09:10:30.272Z,27.47
2023-07-26T09:13:09.704Z,27.23
2023-07-26T09:15:38.050Z,27.01
2023-07-26T09:18:09.256Z,26.81
2023-07-26T09:20:36.355Z,26.70
2023-07-26T09:23:06.060Z,26.63
2023-07-26T09:25:35.078Z,26.58
2023-07-26T09:28:02.356Z,26.56
2023-07-26T09:30:29.087Z,26.61
2023-07-26T09:32:58.988Z,26.70
2023-07-26T09:35:25.696Z,26.74
2023-07-26T09:37:52.981Z,26.84
2023-07-26T09:40:38.031Z,26.97
2023-07-26T09:43:05.909Z,27.15
2023-07-26T09:45:33.054Z,27.29
2023-07-26T09:48:20.969Z,27.37
2023-07-26T09:50:51.973Z,27.41
2023-07-26T09:53:19.331Z,27.41
2023-07-26T09:55:59.995Z,27.57
2023-07-26T09:58:35.803Z,27.31
2023-07-26T10:01:05.447Z,27.27
2023-07-26T10:03:32.631Z,27.29
2023-07-26T10:05:59.548Z,27.41
2023-07-26T10:08:26.397Z,27.49
2023-07-26T10:10:53.669Z,27.68
2023-07-26T10:13:22.341Z,27.89
2023-07-26T10:15:49.705Z,28.16
2023-07-26T10:18:20.484Z,28.26
2023-07-26T10:20:47.152Z,28.27
2023-07-26T10:23:13.874Z,28.18
2023-07-26T10:25:40.796Z,28.16
2023-07-26T10:28:07.956Z,27.81
2023-07-26T10:30:34.807Z,27.59
2023-07-26T10:33:01.765Z,27.53
2023-07-26T10:35:32.354Z,27.50
2023-07-26T10:37:59.807Z,27.48
2023-07-26T10:40:36.728Z,27.51
2023-07-26T10:43:23.108Z,27.61
2023-07-26T10:45:52.002Z,27.67
2023-07-26T10:48:28.648Z,27.76
2023-07-26T10:50:56.637Z,27.97
2023-07-26T10:53:42.238Z,28.19
2023-07-26T10:56:25.233Z,28.67
2023-07-26T10:58:55.529Z,28.77
2023-07-26T11:01:34.552Z,28.83
2023-07-26T11:04:01.490Z,28.91
2023-07-26T11:06:47.530Z,29.03
2023-07-26T11:09:21.918Z,29.19
2023-07-26T11:12:12.171Z,29.30
2023-07-26T11:14:39.130Z,29.23
2023-07-26T11:17:10.798Z,28.57
2023-07-26T11:19:47.364Z,28.42
2023-07-26T11:22:14.329Z,28.30
2023-07-26T11:24:41.459Z,28.20
2023-07-26T11:27:08.160Z,28.21
2023-07-26T11:29:34.972Z,28.26
2023-07-26T11:32:02.644Z,28.29
2023-07-26T11:34:30.153Z,28.27
2023-07-26T11:37:09.685Z,28.21
2023-07-26T11:39:36.586Z,28.44
2023-07-26T11:42:03.487Z,28.47
2023-07-26T11:44:30.622Z,28.44
2023-07-26T11:46:58.029Z,28.63
2023-07-26T11:49:24.999Z,28.89
2023-07-26T11:51:52.398Z,29.12
2023-07-26T11:54:19.229Z,29.27
2023-07-26T11:56:46.380Z,29.28
2023-07-26T11:59:14.323Z,29.34
2023-07-26T12:01:42.533Z,29.56
2023-07-26T12:04:19.288Z,29.87
2023-07-26T12:06:48.827Z,30.20
2023-07-26T12:09:16.051Z,30.38
2023-07-26T12:11:52.498Z,30.60
2023-07-26T12:14:22.534Z,30.74
2023-07-26T12:16:50.199Z,30.84
2023-07-26T12:19:20.244Z,30.79
2023-07-26T12:22:04.875Z,30.72
2023-07-26T12:24:31.711Z,30.86
2023-07-26T12:27:00.083Z,31.08
2023-07-26T12:29:31.319Z,31.31
2023-07-26T12:32:03.810Z,31.51
2023-07-26T12:34:35.642Z,31.82
2023-07-26T12:37:05.520Z,31.70
2023-07-26T12:39:32.261Z,31.60
2023-07-26T12:41:58.919Z,31.63
2023-07-26T12:44:26.808Z,31.73
2023-07-26T12:47:26.901Z,31.85
2023-07-26T12:49:42.292Z,31.98
2023-07-26T12:52:08.864Z,32.08
2023-07-26T12:54:35.769Z,32.17
2023-07-26T12:57:02.699Z,32.19
2023-07-26T12:59:29.596Z,32.16
2023-07-26T13:01:56.304Z,32.07
2023-07-26T13:04:23.710Z,32.02
2023-07-26T13:06:50.757Z,31.98
2023-07-26T13:09:18.093Z,31.97
2023-07-26T13:11:45.081Z,31.93
2023-07-26T13:14:11.714Z,32.00
2023-07-26T13:16:38.919Z,32.01
2023-07-26T13:19:06.359Z,31.85
2023-07-26T13:21:33.135Z,31.72
2023-07-26T13:24:00.228Z,31.71
2023-07-26T13:26:27.605Z,31.78
2023-07-26T13:28:54.544Z,31.91
2023-07-26T13:31:21.104Z,32.05
2023-07-26T13:33:50.592Z,32.19
2023-07-26T13:36:22.051Z,32.32
2023-07-26T13:38:48.780Z,32.24
2023-07-26T13:41:15.822Z,32.16
2023-07-26T13:43:42.754Z,32.09
2023-07-26T13:46:16.591Z,32.11
2023-07-26T13:48:51.454Z,32.19
2023-07-26T13:51:18.676Z,32.27
2023-07-26T13:53:45.380Z,32.30
2023-07-26T13:56:12.175Z,32.39
2023-07-26T13:58:39.120Z,32.45
2023-07-26T14:01:06.006Z,32.60
2023-07-26T14:03:35.447Z,32.75
2023-07-26T14:06:02.875Z,32.88
2023-07-26T14:08:29.714Z,33.18
2023-07-26T14:10:56.303Z,33.42
2023-07-26T14:13:23.391Z,33.32
2023-07-26T14:15:50.370Z,33.30
2023-07-26T14:18:17.343Z,33.52
2023-07-26T14:20:48.167Z,33.79
2023-07-26T14:23:15.094Z,34.12
2023-07-26T14:25:41.822Z,34.50
2023-07-26T14:28:08.458Z,34.84
2023-07-26T14:30:35.744Z,35.28
2023-07-26T14:33:02.340Z,35.71
2023-07-26T14:35:29.405Z,36.00
2023-07-26T14:37:56.959Z,36.31
2023-07-26T14:40:23.555Z,36.63
2023-07-26T14:42:50.607Z,36.92
2023-07-26T14:45:17.297Z,37.00
2023-07-26T14:47:43.935Z,36.64
2023-07-26T14:50:10.550Z,36.38
2023-07-26T14:52:37.284Z,36.43
2023-07-26T14:55:04.169Z,36.23
2023-07-26T14:57:32.089Z,35.78
2023-07-26T14:59:58.792Z,35.36
2023-07-26T15:02:25.753Z,34.91
2023-07-26T15:04:54.763Z,34.51
2023-07-26T15:07:21.797Z,34.42
2023-07-26T15:09:49.134Z,34.67
2023-07-26T15:12:16.352Z,35.09
2023-07-26T15:14:42.949Z,35.43
2023-07-26T15:17:09.641Z,35.77
2023-07-26T15:19:36.551Z,36.19
2023-07-26T15:22:03.388Z,36.53
2023-07-26T15:24:30.370Z,36.59
2023-07-26T15:26:57.092Z,36.57
2023-07-26T15:29:25.023Z,36.65
2023-07-26T15:31:51.773Z,36.60
2023-07-26T15:34:18.680Z,36.60
2023-07-26T15:36:45.267Z,36.58
2023-07-26T15:39:12.218Z,36.67
2023-07-26T15:46:42.582Z,36.43
2023-07-26T15:49:17.082Z,36.41
2023-07-26T15:51:44.318Z,36.37
2023-07-26T15:54:13.470Z,36.34
2023-07-26T15:56:40.449Z,36.31
2023-07-26T15:59:07.321Z,36.31
2023-07-26T16:01:34.126Z,36.14
2023-07-26T16:04:01.180Z,35.76
2023-07-26T16:06:28.771Z,35.40
2023-07-26T16:09:28.096Z,35.03
2023-07-26T16:21:55.567Z,33.38
2023-07-26T16:24:25.066Z,33.08
2023-07-26T16:26:52.009Z,32.78
2023-07-26T16:29:18.769Z,32.38
2023-07-26T16:31:45.770Z,31.96
2023-07-26T16:34:12.490Z,31.56
2023-07-26T16:36:39.190Z,31.15
2023-07-26T16:39:05.875Z,30.74
2023-07-26T16:41:32.868Z,30.34
2023-07-26T16:43:59.634Z,30.01
2023-07-26T16:46:37.453Z,29.75
2023-07-26T16:49:13.896Z,29.48
2023-07-26T16:51:40.791Z,29.24
2023-07-26T16:54:07.400Z,29.02
2023-07-26T16:56:36.238Z,28.84
2023-07-26T16:59:03.456Z,28.68
2023-07-26T17:01:30.562Z,28.51
2023-07-26T17:03:57.672Z,28.35
2023-07-26T17:06:24.378Z,28.20
2023-07-26T17:08:51.089Z,28.03
2023-07-26T17:11:17.778Z,27.84
2023-07-26T17:13:44.458Z,27.66
2023-07-26T17:16:15.695Z,27.53
2023-07-26T17:18:43.462Z,27.38
2023-07-26T17:21:10.926Z,27.19
2023-07-26T17:23:37.641Z,27.02
2023-07-26T17:26:04.777Z,26.88
2023-07-26T17:28:31.743Z,26.75
2023-07-26T17:30:58.454Z,26.66
2023-07-26T17:33:27.677Z,26.57
2023-07-26T17:35:54.419Z,26.46
2023-07-26T17:38:21.290Z,26.38
2023-07-26T17:40:57.420Z,26.32
2023-07-26T17:43:27.711Z,26.26
2023-07-26T17:45:54.732Z,26.20
2023-07-26T17:48:21.820Z,26.18
2023-07-26T17:50:55.969Z,26.15
2023-07-26T17:53:39.944Z,26.11
2023-07-26T17:56:17.659Z,26.09
2023-07-26T17:58:50.839Z,26.06
2023-07-26T18:01:17.972Z,25.99
2023-07-26T18:03:44.838Z,25.93
2023-07-26T18:06:12.364Z,25.86
2023-07-26T18:08:45.165Z,25.79
2023-07-26T18:11:13.523Z,25.65
2023-07-26T18:13:42.886Z,25.49
2023-07-26T18:16:10.330Z,25.36
2023-07-26T18:18:37.839Z,25.25
2023-07-26T18:21:05.755Z,25.13
2023-07-26T18:23:34.304Z,24.92
2023-07-26T18:26:01.030Z,24.67
2023-07-26T18:28:27.797Z,24.52
2023-07-26T18:31:01.948Z,24.47
2023-07-26T18:33:29.087Z,24.48
2023-07-26T18:35:55.764Z,24.47
2023-07-26T18:38:23.560Z,24.40
2023-07-26T18:40:50.079Z,24.19
2023-07-26T18:43:16.993Z,23.94
2023-07-26T18:45:43.971Z,23.68
2023-07-26T18:48:10.950Z,23.43
2023-07-26T18:50:39.278Z,23.23
2023-07-26T18:53:06.568Z,23.04
2023-07-26T18:55:39.318Z,22.79
2023-07-26T18:58:06.444Z,22.57
2023-07-26T19:00:34.906Z,22.37
2023-07-26T19:03:02.565Z,22.18
2023-07-26T19:05:29.561Z,21.99
2023-07-26T19:07:56.579Z,21.80
2023-07-26T19:10:25.494Z,21.56
2023-07-26T19:12:52.138Z,21.27
2023-07-26T19:15:19.042Z,21.04
2023-07-26T19:17:45.606Z,20.91
2023-07-26T19:20:12.169Z,20.85
2023-07-26T19:22:38.760Z,20.83
2023-07-26T19:25:06.148Z,20.86
2023-07-26T19:27:33.361Z,20.90
2023-07-26T19:30:00.754Z,20.96
2023-07-26T19:32:27.663Z,21.03
2023-07-26T19:34:55.509Z,21.07
2023-07-26T19:37:22.415Z,21.07
2023-07-26T19:39:48.989Z,21.06
2023-07-26T19:42:15.592Z,21.05
2023-07-26T19:44:43.385Z,21.04
2023-07-26T19:47:10.005Z,21.04
2023-07-26T19:49:36.927Z,21.05
2023-07-26T19:52:07.492Z,21.05
2023-07-26T19:54:35.213Z,21.06
2023-07-26T19:57:01.775Z,21.07
2023-07-26T19:59:28.551Z,21.09
2023-07-26T20:01:55.427Z,21.10
2023-07-26T20:04:23.622Z,21.10
2023-07-26T20:06:52.006Z,21.10
2023-07-26T20:09:20.395Z,21.13
2023-07-26T20:11:47.157Z,21.16
2023-07-26T20:14:14.227Z,21.16
2023-07-26T20:16:43.574Z,21.15
2023-07-26T20:19:10.781Z,21.16
2023-07-26T20:21:37.510Z,21.19
2023-07-26T20:24:04.378Z,21.23
2023-07-26T20:26:32.727Z,21.25
2023-07-26T20:29:00.239Z,21.28
2023-07-26T20:31:27.214Z,21.32
2023-07-26T20:33:53.866Z,21.37
2023-07-26T20:36:20.352Z,21.39
2023-07-26T20:38:46.914Z,21.41
2023-07-26T20:41:13.947Z,21.45
2023-07-26T20:43:42.302Z,21.51
2023-07-26T20:46:08.973Z,21.59
2023-07-26T20:48:35.611Z,21.65
2023-07-26T20:51:05.759Z,21.70
2023-07-26T20:53:32.447Z,21.74
2023-07-26T20:56:00.228Z,21.76
2023-07-26T20:58:26.995Z,21.75
2023-07-26T21:00:53.892Z,21.74
2023-07-26T21:03:20.886Z,21.73
2023-07-26T21:05:47.665Z,21.73
2023-07-26T21:08:14.433Z,21.74
2023-07-26T21:10:41.272Z,21.71
2023-07-26T21:13:08.153Z,21.66
2023-07-26T21:15:35.369Z,21.62
2023-07-26T21:18:02.062Z,21.57
2023-07-26T21:20:28.898Z,21.51
2023-07-26T21:22:55.758Z,21.41
2023-07-26T21:25:24.451Z,21.32
2023-07-26T21:27:52.734Z,21.24
2023-07-26T21:30:20.659Z,21.20
2023-07-26T21:32:47.404Z,21.23
2023-07-26T21:35:14.261Z,21.22
2023-07-26T21:37:40.944Z,21.17
2023-07-26T21:40:08.158Z,21.13
2023-07-26T21:42:34.754Z,21.09
2023-07-26T21:45:01.222Z,21.07
2023-07-26T21:47:29.262Z,21.09
2023-07-26T21:49:55.843Z,21.02
2023-07-26T21:52:22.543Z,20.97
2023-07-26T21:54:49.077Z,20.99
2023-07-26T21:57:15.615Z,20.96
2023-07-26T21:59:42.174Z,20.87
2023-07-26T22:02:09.008Z,20.79
2023-07-26T22:04:35.997Z,20.72
2023-07-26T22:07:04.072Z,20.65
2023-07-26T22:09:33.160Z,20.54
2023-07-26T22:11:59.749Z,20.50
2023-07-26T22:14:26.354Z,20.51
2023-07-26T22:16:53.182Z,20.51
2023-07-26T22:19:19.784Z,20.48
2023-07-26T22:21:47.400Z,20.50
2023-07-26T22:24:14.609Z,20.53
2023-07-26T22:26:41.188Z,20.54
2023-07-26T22:29:07.990Z,20.56
2023-07-26T22:31:34.878Z,20.58
2023-07-26T22:34:01.838Z,20.59
2023-07-26T22:36:28.533Z,20.63
2023-07-26T22:38:55.379Z,20.63
2023-07-26T22:41:22.210Z,20.60
2023-07-26T22:43:51.663Z,20.57
2023-07-26T22:46:18.546Z,20.56
2023-07-26T22:48:45.098Z,20.90
2023-07-26T22:51:11.758Z,21.01
2023-07-26T22:53:38.671Z,21.05
2023-07-26T22:56:05.220Z,21.05
2023-07-26T22:58:32.171Z,21.05
2023-07-26T23:01:02.877Z,21.09
2023-07-26T23:03:32.024Z,21.13
2023-07-26T23:05:59.191Z,21.11
2023-07-26T23:08:26.256Z,21.06
2023-07-26T23:11:01.967Z,21.07
2023-07-26T23:13:29.874Z,21.09
2023-07-26T23:16:00.427Z,21.08
2023-07-26T23:18:27.419Z,21.07
2023-07-26T23:20:55.319Z,21.10
2023-07-26T23:23:24.384Z,21.16
2023-07-26T23:25:51.296Z,21.20
2023-07-26T23:28:17.913Z,21.20
2023-07-26T23:30:48.398Z,21.19
2023-07-26T23:33:15.371Z,21.21
2023-07-26T23:35:45.530Z,21.23
2023-07-26T23:38:12.081Z,21.22
2023-07-26T23:40:38.825Z,21.19
2023-07-26T23:43:06.379Z,21.19
2023-07-26T23:45:37.164Z,21.20
2023-07-26T23:48:05.390Z,21.22
2023-07-26T23:50:32.444Z,21.25
2023-07-26T23:52:59.335Z,21.26
2023-07-26T23:55:26.351Z,21.25
2023-07-26T23:57:52.934Z,21.27
